createdAt,value
2022-08-07T22:03:31.206Z,964.44
2022-08-07T22:04:20.373Z,964.44
2022-08-07T22:05:43.930Z,964.46
2022-08-07T22:06:29.974Z,964.48
2022-08-07T22:07:04.170Z,964.46
2022-08-07T22:07:59.568Z,964.50
2022-08-07T22:08:53.445Z,964.52
2022-08-07T22:09:54.070Z,964.50
2022-08-07T22:10:44.845Z,964.52
2022-08-07T22:11:52.958Z,964.52
2022-08-07T22:12:35.214Z,964.50
2022-08-07T22:13:50.963Z,964.48
2022-08-07T22:14:36.063Z,964.46
2022-08-07T22:16:42.256Z,964.46
2022-08-07T22:16:44.425Z,964.48
2022-08-07T22:17:10.818Z,964.44
2022-08-07T22:19:11.732Z,964.46
2022-08-07T22:20:06.084Z,964.46
2022-08-07T22:21:01.559Z,964.48
2022-08-07T22:22:02.019Z,964.48
2022-08-07T22:22:52.441Z,964.46
2022-08-07T22:23:46.713Z,964.46
2022-08-07T22:24:41.829Z,964.42
2022-08-07T22:25:36.916Z,964.44
2022-08-07T22:26:32.008Z,964.44
2022-08-07T22:27:34.214Z,964.44
2022-08-07T22:28:32.479Z,964.48
2022-08-07T22:29:18.674Z,964.46
2022-08-07T22:30:12.823Z,964.48
2022-08-07T22:31:08.042Z,964.46
2022-08-07T22:32:05.670Z,964.44
2022-08-07T22:32:58.407Z,964.40
2022-08-07T22:33:57.384Z,964.40
2022-08-07T22:34:52.979Z,964.40
2022-08-07T22:35:44.896Z,964.38
2022-08-07T22:36:39.022Z,964.38
2022-08-07T22:38:02.687Z,964.38
2022-08-07T22:38:30.402Z,964.38
2022-08-07T22:39:24.546Z,964.38
2022-08-07T22:40:19.777Z,964.40
2022-08-07T22:41:14.882Z,964.38
2022-08-07T22:42:18.764Z,964.36
2022-08-07T22:43:06.264Z,964.36
2022-08-07T22:44:00.398Z,964.34
2022-08-07T22:44:58.725Z,964.36
2022-08-07T22:46:21.306Z,964.34
2022-08-07T22:47:04.188Z,964.36
2022-08-07T22:47:42.319Z,964.38
2022-08-07T22:48:55.264Z,964.42
2022-08-07T22:49:33.839Z,964.40
2022-08-07T22:50:33.035Z,964.38
2022-08-07T22:51:22.981Z,964.40
2022-08-07T22:52:34.829Z,964.40
2022-08-07T22:53:15.261Z,964.42
2022-08-07T22:54:09.264Z,964.42
2022-08-07T22:55:17.358Z,964.42
2022-08-07T22:55:58.741Z,964.44
2022-08-07T22:56:52.919Z,964.42
2022-08-07T22:57:48.133Z,964.40
2022-08-07T22:58:43.407Z,964.40
2022-08-07T22:59:38.554Z,964.42
2022-08-07T23:00:33.640Z,964.42
2022-08-07T23:01:30.572Z,964.44
2022-08-07T23:02:24.855Z,964.42
2022-08-07T23:03:19.011Z,964.40
2022-08-07T23:04:14.055Z,964.42
2022-08-07T23:06:07.731Z,964.42
2022-08-07T23:06:08.350Z,964.46
2022-08-07T23:07:00.638Z,964.46
2022-08-07T23:07:54.789Z,964.46
2022-08-07T23:08:55.972Z,964.50
2022-08-07T23:10:00.640Z,964.48
2022-08-07T23:10:42.328Z,964.48
2022-08-07T23:11:44.318Z,964.46
2022-08-07T23:12:34.681Z,964.42
2022-08-07T23:13:29.084Z,964.42
2022-08-07T23:14:22.704Z,964.40
2022-08-07T23:16:04.394Z,964.38
2022-08-07T23:16:46.432Z,964.38
2022-08-07T23:17:08.452Z,964.38
2022-08-07T23:18:02.696Z,964.38
2022-08-07T23:18:56.850Z,964.40
2022-08-07T23:19:57.982Z,964.42
2022-08-07T23:20:52.666Z,964.46
2022-08-07T23:21:43.241Z,964.46
2022-08-07T23:22:37.369Z,964.46
2022-08-07T23:24:05.485Z,964.46
2022-08-07T23:24:28.663Z,964.44
2022-08-07T23:25:22.777Z,964.46
2022-08-07T23:26:18.921Z,964.48
2022-08-07T23:27:13.119Z,964.44
2022-08-07T23:28:21.130Z,964.44
2022-08-07T23:29:04.377Z,964.42
2022-08-07T23:30:37.278Z,964.42
2022-08-07T23:31:06.280Z,964.42
2022-08-07T23:34:20.818Z,964.40
2022-08-07T23:34:21.201Z,964.40
2022-08-07T23:34:21.803Z,964.42
2022-08-07T23:34:39.579Z,964.40
2022-08-07T23:35:29.560Z,964.40
2022-08-07T23:36:29.796Z,964.44
2022-08-07T23:37:22.682Z,964.42
2022-08-07T23:38:19.384Z,964.40
2022-08-07T23:39:11.239Z,964.42
2022-08-07T23:40:05.733Z,964.40
2022-08-07T23:41:00.440Z,964.40
2022-08-07T23:42:04.584Z,964.38
2022-08-07T23:42:53.237Z,964.38
2022-08-07T23:43:45.896Z,964.42
2022-08-07T23:44:40.944Z,964.40
2022-08-07T23:46:03.356Z,964.40
2022-08-07T23:46:33.771Z,964.38
2022-08-07T23:47:26.376Z,964.38
2022-08-07T23:48:21.749Z,964.38
2022-08-07T23:49:16.760Z,964.38
2022-08-07T23:50:16.404Z,964.40
2022-08-07T23:53:01.295Z,964.36
2022-08-07T23:53:01.820Z,964.38
2022-08-07T23:53:17.606Z,964.38
2022-08-07T23:53:53.647Z,964.38
2022-08-07T23:54:52.875Z,964.40
2022-08-07T23:55:51.714Z,964.40
2022-08-07T23:56:38.960Z,964.42
2022-08-07T23:57:34.856Z,964.40
2022-08-07T23:58:28.253Z,964.38
